createdAt,value
2023-04-02T00:00:14.303Z,99182.16
2023-04-02T00:03:03.902Z,99181.00
2023-04-02T00:05:51.732Z,99175.34
2023-04-02T00:08:23.435Z,99175.97
2023-04-02T00:10:52.360Z,99183.84
2023-04-02T00:13:23.868Z,99184.34
2023-04-02T00:15:53.513Z,99187.28
2023-04-02T00:18:23.144Z,99181.38
2023-04-02T00:20:53.979Z,99198.34
2023-04-02T00:23:23.884Z,99188.66
2023-04-02T00:25:51.704Z,99186.69
2023-04-02T00:28:21.697Z,99197.56
2023-04-02T00:30:49.942Z,99195.38
2023-04-02T00:33:19.693Z,99195.06
2023-04-02T00:35:48.772Z,99209.22
2023-04-02T00:38:21.492Z,99203.19
2023-04-02T00:40:51.197Z,99207.66
2023-04-02T00:43:21.034Z,99206.75
2023-04-02T00:45:52.691Z,99197.19
2023-04-02T00:48:28.581Z,99200.97
2023-04-02T00:50:57.599Z,99197.91
2023-04-02T00:53:26.653Z,99199.66
2023-04-02T00:55:57.546Z,99195.78
2023-04-02T00:58:28.219Z,99197.66
2023-04-02T01:00:58.736Z,99197.91
2023-04-02T01:03:38.851Z,99196.25
2023-04-02T01:06:11.342Z,99205.09
2023-04-02T01:08:45.326Z,99200.81
2023-04-02T01:11:23.673Z,99199.06
2023-04-02T01:13:54.751Z,99203.78
2023-04-02T01:16:29.314Z,99209.94
2023-04-02T01:19:02.236Z,99218.06
2023-04-02T01:21:37.954Z,99213.56
2023-04-02T01:24:07.252Z,99217.94
2023-04-02T01:26:49.023Z,99217.72
2023-04-02T01:29:21.508Z,99228.31
2023-04-02T01:31:50.320Z,99221.59
2023-04-02T01:34:19.806Z,99233.75
2023-04-02T01:36:53.114Z,99237.63
2023-04-02T01:39:30.826Z,99237.50
2023-04-02T01:42:03.744Z,99245.88
2023-04-02T01:44:36.076Z,99254.25
2023-04-02T01:47:06.374Z,99262.69
2023-04-02T01:49:34.093Z,99265.28
2023-04-02T01:52:01.931Z,99260.81
2023-04-02T01:54:33.191Z,99269.09
2023-04-02T01:57:00.880Z,99271.94
2023-04-02T01:59:29.489Z,99265.81
2023-04-02T02:02:04.083Z,99263.81
2023-04-02T02:04:34.929Z,99271.47
2023-04-02T02:07:03.523Z,99266.25
2023-04-02T02:09:33.910Z,99265.09
2023-04-02T02:12:03.682Z,99264.47
2023-04-02T02:14:31.853Z,99265.41
2023-04-02T02:17:02.277Z,99260.84
2023-04-02T02:19:34.314Z,99261.06
2023-04-02T02:22:06.783Z,99261.53
2023-04-02T02:24:35.901Z,99272.28
2023-04-02T02:27:17.281Z,99278.66
2023-04-02T02:29:45.720Z,99288.69
2023-04-02T02:32:14.504Z,99295.53
2023-04-02T02:34:47.549Z,99296.00
2023-04-02T02:37:17.076Z,99292.91
2023-04-02T02:39:47.192Z,99300.00
2023-04-02T02:42:16.837Z,99302.22
2023-04-02T02:44:47.412Z,99305.38
2023-04-02T02:47:16.444Z,99316.25
2023-04-02T02:49:47.068Z,99302.00
2023-04-02T02:52:16.749Z,99310.13
2023-04-02T02:54:52.917Z,99312.13
2023-04-02T02:57:23.569Z,99313.28
2023-04-02T02:59:52.213Z,99320.72
2023-04-02T03:02:20.324Z,99324.50
2023-04-02T03:04:53.186Z,99329.91
2023-04-02T03:07:25.605Z,99328.16
2023-04-02T03:09:59.716Z,99328.75
2023-04-02T03:12:33.399Z,99329.72
2023-04-02T03:15:04.185Z,99335.63
2023-04-02T03:17:35.728Z,99348.59
2023-04-02T03:20:10.643Z,99348.50
2023-04-02T03:22:39.755Z,99349.69
2023-04-02T03:25:17.799Z,99354.00
2023-04-02T03:27:48.230Z,99351.88
2023-04-02T03:30:26.301Z,99358.50
2023-04-02T03:32:56.415Z,99368.03
2023-04-02T03:35:29.729Z,99372.03
2023-04-02T03:38:01.707Z,99372.72
2023-04-02T03:40:32.360Z,99369.78
2023-04-02T03:43:02.652Z,99372.75
2023-04-02T03:45:34.921Z,99385.03
2023-04-02T03:48:06.262Z,99386.72
2023-04-02T03:50:39.123Z,99401.31
2023-04-02T03:53:07.133Z,99402.84
2023-04-02T03:55:38.080Z,99409.69
2023-04-02T03:58:11.108Z,99412.28
2023-04-02T04:00:41.652Z,99412.13
2023-04-02T04:03:13.201Z,99412.53
2023-04-02T04:05:48.631Z,99412.56
2023-04-02T04:08:18.731Z,99424.13
2023-04-02T04:10:47.635Z,99433.09
2023-04-02T04:13:19.913Z,99429.53
2023-04-02T04:15:52.856Z,99434.50
2023-04-02T04:18:32.128Z,99438.28
2023-04-02T04:21:03.155Z,99441.81
2023-04-02T04:23:41.259Z,99443.13
2023-04-02T04:26:19.906Z,99447.59
2023-04-02T04:28:59.911Z,99450.72
2023-04-02T04:31:34.385Z,99463.25
2023-04-02T04:34:09.232Z,99456.16
2023-04-02T04:36:54.353Z,99460.44
2023-04-02T04:39:31.836Z,99465.72
2023-04-02T04:42:02.268Z,99477.22
2023-04-02T04:44:37.716Z,99482.16
2023-04-02T04:47:09.380Z,99483.09
2023-04-02T04:49:40.204Z,99483.72
2023-04-02T04:52:13.302Z,99490.81
2023-04-02T04:54:42.531Z,99493.41
2023-04-02T04:57:22.881Z,99502.19
2023-04-02T04:59:53.985Z,99499.28
2023-04-02T05:02:25.470Z,99501.34
2023-04-02T05:04:56.318Z,99512.28
2023-04-02T05:07:29.124Z,99510.50
2023-04-02T05:09:59.628Z,99514.63
2023-04-02T05:12:34.852Z,99513.69
2023-04-02T05:15:09.749Z,99505.91
2023-04-02T05:17:42.118Z,99516.38
2023-04-02T05:20:16.464Z,99517.09
2023-04-02T05:22:52.648Z,99525.16
2023-04-02T05:25:23.357Z,99529.66
2023-04-02T05:27:55.659Z,99536.25
2023-04-02T05:30:49.439Z,99544.78
2023-04-02T05:33:25.798Z,99548.63
2023-04-02T05:36:00.561Z,99548.75
2023-04-02T05:38:33.515Z,99552.16
2023-04-02T05:41:03.395Z,99556.75
2023-04-02T05:43:33.984Z,99562.09
2023-04-02T05:46:09.280Z,99573.34
2023-04-02T05:48:39.108Z,99579.03
2023-04-02T05:51:10.256Z,99578.59
2023-04-02T05:53:42.428Z,99590.66
2023-04-02T05:56:14.340Z,99586.41
2023-04-02T05:58:45.734Z,99593.59
2023-04-02T06:01:45.266Z,99595.31
2023-04-02T06:04:32.976Z,99601.84
2023-04-02T06:07:06.318Z,99607.47
2023-04-02T06:09:42.922Z,99617.16
2023-04-02T06:12:17.097Z,99619.44
2023-04-02T06:14:46.030Z,99617.84
2023-04-02T06:17:17.492Z,99622.66
2023-04-02T06:19:46.808Z,99629.81
2023-04-02T06:22:24.420Z,99637.16
2023-04-02T06:25:01.593Z,99643.50
2023-04-02T06:27:32.306Z,99650.66
2023-04-02T06:30:03.150Z,99655.94
2023-04-02T06:32:32.816Z,99660.25
2023-04-02T06:35:01.367Z,99671.47
2023-04-02T06:37:34.659Z,99670.69
2023-04-02T06:40:25.881Z,99681.19
2023-04-02T06:43:00.016Z,99682.84
2023-04-02T06:46:12.234Z,99694.56
2023-04-02T06:49:00.279Z,99695.03
2023-04-02T06:51:29.009Z,99703.50
2023-04-02T06:53:57.041Z,99711.03
2023-04-02T06:56:34.452Z,99709.66
2023-04-02T06:59:04.414Z,99712.75
2023-04-02T07:01:35.119Z,99722.38
2023-04-02T07:04:03.028Z,99736.09
2023-04-02T07:06:39.265Z,99733.38
2023-04-02T07:09:07.696Z,99732.84
2023-04-02T07:11:40.565Z,99733.97
2023-04-02T07:14:10.832Z,99745.72
2023-04-02T07:16:38.692Z,99752.38
2023-04-02T07:19:07.083Z,99750.50
2023-04-02T07:21:38.235Z,99753.28
2023-04-02T07:24:07.152Z,99761.06
2023-04-02T07:26:34.744Z,99752.91
2023-04-02T07:29:03.940Z,99764.75
2023-04-02T07:31:31.939Z,99765.97
2023-04-02T07:34:00.753Z,99760.00
2023-04-02T07:36:29.694Z,99762.28
2023-04-02T07:38:57.443Z,99752.69
2023-04-02T07:41:26.319Z,99772.88
2023-04-02T07:43:54.634Z,99761.25
2023-04-02T07:46:24.603Z,99758.56
2023-04-02T07:48:52.399Z,99760.56
2023-04-02T07:51:20.967Z,99765.41
2023-04-02T07:53:56.348Z,99762.81
2023-04-02T07:56:25.904Z,99767.19
2023-04-02T07:58:53.539Z,99767.44
2023-04-02T08:01:25.862Z,99772.81
2023-04-02T08:03:54.821Z,99784.22
2023-04-02T08:06:22.660Z,99775.19
2023-04-02T08:08:50.524Z,99782.22
2023-04-02T08:11:18.482Z,99787.56
2023-04-02T08:13:45.946Z,99795.75
2023-04-02T08:16:13.906Z,99797.84
2023-04-02T08:18:42.972Z,99804.53
2023-04-02T08:21:11.732Z,99808.25
2023-04-02T08:23:39.519Z,99814.09
2023-04-02T08:26:07.845Z,99822.47
2023-04-02T08:28:35.584Z,99827.88
2023-04-02T08:31:04.975Z,99828.56
2023-04-02T08:33:34.259Z,99832.81
2023-04-02T08:36:03.429Z,99848.97
2023-04-02T08:38:31.441Z,99864.16
2023-04-02T08:41:00.866Z,99882.81
2023-04-02T08:43:38.791Z,99879.41
2023-04-02T08:46:10.950Z,99891.00
2023-04-02T08:48:42.477Z,99897.31
2023-04-02T08:51:20.977Z,99900.03
2023-04-02T08:53:48.699Z,99896.91
2023-04-02T08:56:19.953Z,99899.34
2023-04-02T08:58:49.498Z,99909.19
2023-04-02T09:01:21.932Z,99915.25
2023-04-02T09:03:51.443Z,99921.31
2023-04-02T09:06:21.641Z,99910.81
2023-04-02T09:08:51.935Z,99928.53
2023-04-02T09:11:23.544Z,99923.06
2023-04-02T09:13:53.918Z,99934.66
2023-04-02T09:16:25.719Z,99951.63
2023-04-02T09:18:55.189Z,99940.56
2023-04-02T09:21:31.863Z,99950.56
2023-04-02T09:23:59.633Z,99958.72
2023-04-02T09:26:28.911Z,99950.28
2023-04-02T09:29:02.093Z,99967.13
2023-04-02T09:31:32.762Z,99975.06
2023-04-02T09:34:01.452Z,99985.16
2023-04-02T09:36:38.610Z,99995.28
2023-04-02T09:39:08.619Z,100000.16
2023-04-02T09:41:37.514Z,100009.38
2023-04-02T09:44:21.629Z,100016.38
2023-04-02T09:46:54.460Z,100017.22
2023-04-02T09:49:24.771Z,100039.28
2023-04-02T09:52:17.663Z,100034.00
2023-04-02T09:54:46.368Z,100026.75
2023-04-02T09:57:24.241Z,100040.97
2023-04-02T10:00:14.663Z,100041.84
2023-04-02T10:03:01.164Z,100050.00
2023-04-02T10:05:39.816Z,100060.19
2023-04-02T10:08:18.335Z,100061.66
2023-04-02T10:10:49.178Z,100073.75
2023-04-02T10:13:21.122Z,100091.75
2023-04-02T10:15:52.415Z,100085.72
2023-04-02T10:18:23.976Z,100093.84
2023-04-02T10:20:53.980Z,100098.41
2023-04-02T10:23:26.160Z,100111.34
2023-04-02T10:25:59.174Z,100121.69
2023-04-02T10:28:34.838Z,100121.84
2023-04-02T10:31:07.248Z,100122.78
2023-04-02T10:33:39.744Z,100130.09
2023-04-02T10:36:10.769Z,100144.94
2023-04-02T10:38:44.469Z,100133.06
2023-04-02T10:41:22.642Z,100147.75
2023-04-02T10:44:16.714Z,100153.09
2023-04-02T10:46:54.008Z,100147.44
2023-04-02T10:49:29.624Z,100155.84
2023-04-02T10:52:01.227Z,100169.00
2023-04-02T10:54:35.444Z,100190.91
2023-04-02T10:57:08.200Z,100183.00
2023-04-02T10:59:40.109Z,100177.75
2023-04-02T11:02:18.909Z,100193.25
2023-04-02T11:04:47.313Z,100208.13
2023-04-02T11:07:18.229Z,100193.72
2023-04-02T11:09:50.297Z,100210.97
2023-04-02T11:12:22.775Z,100223.28
2023-04-02T11:14:51.679Z,100208.63
2023-04-02T11:17:21.995Z,100221.44
2023-04-02T11:19:50.304Z,100225.88
2023-04-02T11:22:19.392Z,100226.91
2023-04-02T11:24:50.124Z,100224.75
2023-04-02T11:27:27.112Z,100241.25
2023-04-02T11:30:00.577Z,100232.56
2023-04-02T11:32:40.515Z,100231.66
2023-04-02T11:35:27.656Z,100256.13
2023-04-02T11:37:56.525Z,100252.53
2023-04-02T11:40:46.839Z,100255.72
2023-04-02T11:43:32.999Z,100272.19
2023-04-02T11:46:01.899Z,100273.06
2023-04-02T11:48:31.666Z,100275.22
2023-04-02T11:50:59.623Z,100274.00
2023-04-02T11:53:30.338Z,100289.69
2023-04-02T11:56:10.046Z,100289.53
2023-04-02T11:58:49.734Z,100286.72
2023-04-02T12:01:29.732Z,100307.44
2023-04-02T12:04:11.588Z,100302.13
2023-04-02T12:06:49.284Z,100319.25
2023-04-02T12:09:20.318Z,100313.09
2023-04-02T12:11:51.041Z,100304.81
2023-04-02T12:14:45.541Z,100315.63
2023-04-02T12:17:18.670Z,100316.38
2023-04-02T12:19:48.350Z,100318.09
2023-04-02T12:22:20.313Z,100330.94
2023-04-02T12:24:49.030Z,100334.03
2023-04-02T12:27:22.618Z,100324.44
2023-04-02T12:29:51.245Z,100350.66
2023-04-02T12:32:25.612Z,100339.38
2023-04-02T12:34:54.806Z,100344.22
2023-04-02T12:37:24.277Z,100355.69
2023-04-02T12:39:56.372Z,100360.28
2023-04-02T12:42:29.408Z,100368.84
2023-04-02T12:44:57.316Z,100363.81
2023-04-02T12:47:25.973Z,100378.78
2023-04-02T12:49:54.732Z,100371.72
2023-04-02T12:52:23.532Z,100377.63
2023-04-02T12:54:52.986Z,100356.75
2023-04-02T12:57:22.133Z,100393.81
2023-04-02T12:59:51.241Z,100385.38
2023-04-02T13:02:20.439Z,100385.22
2023-04-02T13:04:49.933Z,100383.78
2023-04-02T13:07:19.073Z,100388.78
2023-04-02T13:09:47.992Z,100394.66
2023-04-02T13:12:26.408Z,100403.31
2023-04-02T13:14:57.536Z,100396.41
2023-04-02T13:17:42.253Z,100399.16
2023-04-02T13:20:29.278Z,100411.34
2023-04-02T13:22:57.134Z,100411.69
2023-04-02T13:25:28.551Z,100413.53
2023-04-02T13:27:56.600Z,100409.25
2023-04-02T13:30:27.078Z,100404.44
2023-04-02T13:32:55.653Z,100422.53
2023-04-02T13:35:23.626Z,100425.69
2023-04-02T13:37:51.586Z,100422.81
2023-04-02T13:40:20.525Z,100427.19
2023-04-02T13:42:50.189Z,100430.56
2023-04-02T13:45:22.437Z,100426.59
2023-04-02T13:47:51.784Z,100430.34
2023-04-02T13:50:21.011Z,100421.56
2023-04-02T13:52:49.887Z,100439.66
2023-04-02T13:55:19.139Z,100439.00
2023-04-02T13:57:47.238Z,100442.84
2023-04-02T14:00:16.222Z,100441.31
2023-04-02T14:02:46.429Z,100451.00
2023-04-02T14:05:33.346Z,100459.31
2023-04-02T14:08:07.253Z,100472.25
2023-04-02T14:10:41.020Z,100472.28
2023-04-02T14:13:14.281Z,100468.56
2023-04-02T14:15:52.630Z,100481.94
2023-04-02T14:18:28.218Z,100472.41
2023-04-02T14:21:03.689Z,100458.72
2023-04-02T14:23:37.616Z,100479.63
2023-04-02T14:26:11.809Z,100491.16
2023-04-02T14:28:47.206Z,100486.06
2023-04-02T14:31:22.485Z,100487.75
2023-04-02T14:33:56.748Z,100497.78
2023-04-02T14:36:29.751Z,100486.47
2023-04-02T14:39:03.468Z,100511.28
2023-04-02T14:41:36.324Z,100504.16
2023-04-02T14:44:05.945Z,100516.59
2023-04-02T14:46:36.171Z,100510.66
2023-04-02T14:49:08.131Z,100516.69
2023-04-02T14:51:38.471Z,100516.91
2023-04-02T14:54:10.705Z,100502.06
2023-04-02T14:56:40.846Z,100532.44
2023-04-02T14:59:22.403Z,100545.38
2023-04-02T15:01:51.275Z,100535.03
2023-04-02T15:04:21.483Z,100529.56
2023-04-02T15:06:52.650Z,100545.28
2023-04-02T15:09:23.723Z,100550.03
2023-04-02T15:11:52.702Z,100548.69
2023-04-02T15:14:22.518Z,100557.44
2023-04-02T15:16:50.510Z,100564.84
2023-04-02T15:19:19.504Z,100552.47
2023-04-02T15:22:08.823Z,100560.34
2023-04-02T15:24:41.073Z,100572.88
2023-04-02T15:27:24.348Z,100572.91
2023-04-02T15:29:57.861Z,100560.69
2023-04-02T15:32:31.149Z,100572.06
2023-04-02T15:35:03.482Z,100583.66
2023-04-02T15:37:35.308Z,100581.88
2023-04-02T15:40:18.225Z,100585.81
2023-04-02T15:42:49.215Z,100589.75
2023-04-02T15:45:28.977Z,100589.16
2023-04-02T15:48:01.633Z,100604.34
2023-04-02T15:50:38.144Z,100592.41
2023-04-02T15:53:11.283Z,100607.75
2023-04-02T15:55:42.069Z,100608.81
2023-04-02T15:58:17.413Z,100610.47
2023-04-02T16:00:50.748Z,100595.00
2023-04-02T16:03:39.503Z,100615.97
2023-04-02T16:06:26.214Z,100622.16
2023-04-02T16:09:16.360Z,100626.19
2023-04-02T16:11:44.249Z,100633.47
2023-04-02T16:14:18.141Z,100633.78
2023-04-02T16:16:47.262Z,100643.69
2023-04-02T16:19:18.691Z,100617.75
2023-04-02T16:21:49.091Z,100643.00
2023-04-02T16:24:18.449Z,100657.19
2023-04-02T16:26:52.448Z,100656.13
2023-04-02T16:29:51.039Z,100663.13
2023-04-02T16:32:30.931Z,100661.22
2023-04-02T16:35:24.796Z,100669.69
2023-04-02T16:37:56.310Z,100671.31
2023-04-02T16:40:31.814Z,100677.13
2023-04-02T16:43:04.973Z,100674.38
2023-04-02T16:45:37.964Z,100684.56
2023-04-02T16:48:11.848Z,100680.44
2023-04-02T16:50:47.911Z,100699.06
2023-04-02T16:53:23.151Z,100713.81
2023-04-02T16:56:02.821Z,100703.22
2023-04-02T16:58:38.778Z,100715.91
2023-04-02T17:01:12.824Z,100724.06
2023-04-02T17:03:56.292Z,100727.22
2023-04-02T17:06:29.266Z,100739.16
2023-04-02T17:08:59.792Z,100743.81
2023-04-02T17:11:34.010Z,100736.28
2023-04-02T17:14:06.487Z,100750.25
2023-04-02T17:16:38.319Z,100760.25
2023-04-02T17:19:09.494Z,100771.59
2023-04-02T17:21:38.476Z,100767.88
2023-04-02T17:24:14.168Z,100764.88
2023-04-02T17:26:46.637Z,100788.66
2023-04-02T17:29:18.715Z,100790.09
2023-04-02T17:31:49.498Z,100791.50
2023-04-02T17:34:18.596Z,100798.25
2023-04-02T17:36:51.592Z,100799.66
2023-04-02T17:39:21.475Z,100801.88
2023-04-02T17:41:53.079Z,100808.81
2023-04-02T17:44:37.206Z,100783.25
2023-04-02T17:47:10.398Z,100827.25
2023-04-02T17:49:42.079Z,100809.22
2023-04-02T17:52:14.674Z,100818.72
2023-04-02T17:54:49.075Z,100829.75
2023-04-02T17:57:26.024Z,100826.31
2023-04-02T18:00:01.601Z,100828.81
2023-04-02T18:02:58.361Z,100851.75
2023-04-02T18:05:33.106Z,100846.66
2023-04-02T18:08:06.963Z,100843.84
2023-04-02T18:10:39.778Z,100853.50
2023-04-02T18:13:16.912Z,100866.22
2023-04-02T18:16:00.034Z,100869.50
2023-04-02T18:18:42.877Z,100871.22
2023-04-02T18:21:17.311Z,100875.53
2023-04-02T18:23:54.001Z,100886.97
2023-04-02T18:26:29.449Z,100883.72
2023-04-02T18:29:06.403Z,100891.97
2023-04-02T18:31:41.217Z,100894.06
2023-04-02T18:34:20.938Z,100892.22
2023-04-02T18:36:55.661Z,100894.22
2023-04-02T18:39:31.821Z,100907.47
2023-04-02T18:42:03.187Z,100903.47
2023-04-02T18:44:40.376Z,100907.94
2023-04-02T18:47:13.195Z,100913.09
2023-04-02T18:49:44.486Z,100917.97
2023-04-02T18:52:13.723Z,100919.63
2023-04-02T18:54:44.253Z,100937.31
2023-04-02T18:57:15.822Z,100946.66
2023-04-02T18:59:48.763Z,100950.13
2023-04-02T19:02:31.582Z,100950.22
2023-04-02T19:05:02.066Z,100955.34
2023-04-02T19:07:31.519Z,100954.06
2023-04-02T19:10:03.837Z,100966.22
2023-04-02T19:12:33.990Z,100962.09
2023-04-02T19:15:15.934Z,100961.97
2023-04-02T19:17:46.935Z,100967.25
2023-04-02T19:20:22.008Z,100976.81
2023-04-02T19:22:57.969Z,100974.16
2023-04-02T19:25:38.964Z,100988.81
2023-04-02T19:28:09.159Z,100988.72
2023-04-02T19:30:43.581Z,100994.63
2023-04-02T19:33:16.641Z,100999.44
2023-04-02T19:35:48.139Z,101001.22
2023-04-02T19:38:21.673Z,101005.06
2023-04-02T19:40:54.530Z,101011.47
2023-04-02T19:43:22.450Z,101009.78
2023-04-02T19:45:54.798Z,101013.81
2023-04-02T19:48:24.054Z,101009.25
2023-04-02T19:50:51.854Z,101012.22
2023-04-02T19:53:20.418Z,101014.25
2023-04-02T19:55:48.739Z,101021.25
2023-04-02T19:58:23.442Z,101030.28
2023-04-02T20:00:51.613Z,101022.13
2023-04-02T20:03:21.400Z,101022.16
2023-04-02T20:05:50.213Z,101028.22
2023-04-02T20:08:18.645Z,101028.97
2023-04-02T20:10:48.910Z,101024.28
2023-04-02T20:13:17.106Z,101029.22
2023-04-02T20:15:47.353Z,101033.66
2023-04-02T20:18:15.615Z,101031.97
2023-04-02T20:20:46.253Z,101023.59
2023-04-02T20:23:14.002Z,101037.31
2023-04-02T20:25:45.687Z,101035.81
2023-04-02T20:28:14.222Z,101044.53
2023-04-02T20:30:42.531Z,101049.84
2023-04-02T20:33:10.586Z,101053.94
2023-04-02T20:35:38.446Z,101057.97
2023-04-02T20:38:08.398Z,101069.78
2023-04-02T20:40:36.586Z,101063.38
2023-04-02T20:43:04.936Z,101069.63
2023-04-02T20:45:33.098Z,101073.59
2023-04-02T20:48:01.147Z,101075.34
2023-04-02T20:50:29.518Z,101081.50
2023-04-02T20:52:59.575Z,101089.72
2023-04-02T20:55:29.129Z,101083.25
2023-04-02T20:57:57.824Z,101079.53
2023-04-02T21:00:25.624Z,101082.59
2023-04-02T21:02:53.336Z,101088.59
2023-04-02T21:05:21.289Z,101098.03
2023-04-02T21:07:52.512Z,101100.88
2023-04-02T21:10:21.385Z,101104.22
2023-04-02T21:12:50.884Z,101105.69
2023-04-02T21:15:19.438Z,101109.69
2023-04-02T21:17:47.368Z,101100.44
2023-04-02T21:20:15.345Z,101111.41
2023-04-02T21:22:43.705Z,101109.03
2023-04-02T21:25:11.986Z,101107.75
2023-04-02T21:27:40.404Z,101112.38
2023-04-02T21:30:11.803Z,101112.09
2023-04-02T21:32:39.745Z,101112.34
2023-04-02T21:35:09.342Z,101112.09
2023-04-02T21:37:37.356Z,101117.16
2023-04-02T21:40:06.014Z,101109.50
2023-04-02T21:42:34.246Z,101109.47
2023-04-02T21:45:03.420Z,101112.88
2023-04-02T21:47:33.068Z,101113.22
2023-04-02T21:50:01.309Z,101123.19
2023-04-02T21:52:29.441Z,101118.44
2023-04-02T21:54:57.611Z,101116.75
2023-04-02T21:57:26.063Z,101113.84
2023-04-02T21:59:57.164Z,101126.09
2023-04-02T22:02:25.658Z,101120.75
2023-04-02T22:04:55.222Z,101121.78
2023-04-02T22:07:23.143Z,101121.44
2023-04-02T22:09:51.303Z,101119.25
2023-04-02T22:12:19.269Z,101125.34
2023-04-02T22:14:47.351Z,101121.97
2023-04-02T22:17:15.297Z,101119.25
2023-04-02T22:19:42.928Z,101124.69
2023-04-02T22:22:12.248Z,101122.19
2023-04-02T22:24:39.992Z,101124.63
2023-04-02T22:27:07.720Z,101125.88
2023-04-02T22:29:35.502Z,101124.25
2023-04-02T22:32:03.823Z,101123.53
2023-04-02T22:34:31.997Z,101129.06
2023-04-02T22:37:01.929Z,101129.06
2023-04-02T22:39:31.691Z,101131.00
2023-04-02T22:42:00.169Z,101129.38
2023-04-02T22:44:27.964Z,101129.91
2023-04-02T22:46:55.938Z,101125.53
2023-04-02T22:49:23.738Z,101123.25
2023-04-02T22:51:51.678Z,101123.59
2023-04-02T22:54:19.587Z,101126.03
2023-04-02T22:56:49.079Z,101123.75
2023-04-02T22:59:17.358Z,101131.47
2023-04-02T23:01:46.085Z,101135.31
2023-04-02T23:04:14.707Z,101136.56
2023-04-02T23:06:42.808Z,101131.31
2023-04-02T23:09:11.449Z,101127.72
2023-04-02T23:11:39.839Z,101133.97
2023-04-02T23:14:09.258Z,101136.31
2023-04-02T23:16:38.305Z,101137.47
2023-04-02T23:19:08.844Z,101139.50
2023-04-02T23:21:37.232Z,101132.56
2023-04-02T23:24:05.249Z,101134.50
2023-04-02T23:26:33.087Z,101133.69
2023-04-02T23:29:02.056Z,101126.81
2023-04-02T23:31:31.571Z,101135.16
2023-04-02T23:34:00.537Z,101132.78
2023-04-02T23:36:31.992Z,101129.63
2023-04-02T23:39:01.764Z,101137.00
2023-04-02T23:41:30.177Z,101132.88
2023-04-02T23:43:59.268Z,101134.59
2023-04-02T23:46:27.515Z,101132.06
2023-04-02T23:48:57.611Z,101137.94
2023-04-02T23:51:26.376Z,101130.28
2023-04-02T23:53:55.424Z,101130.47
2023-04-02T23:56:23.834Z,101133.66
2023-04-02T23:58:52.108Z,101132.41
